createdAt,value
2023-03-13T00:01:36.711Z,7.00
2023-03-13T00:04:04.564Z,6.90
2023-03-13T00:06:33.704Z,6.90
2023-03-13T00:09:02.057Z,6.80
2023-03-13T00:11:29.952Z,6.80
2023-03-13T00:14:00.178Z,6.70
2023-03-13T00:16:28.587Z,6.70
2023-03-13T00:18:57.481Z,6.70
2023-03-13T00:21:26.320Z,6.60
2023-03-13T00:23:54.190Z,6.60
2023-03-13T00:26:24.025Z,6.60
2023-03-13T00:28:51.902Z,6.60
2023-03-13T00:31:22.130Z,6.60
2023-03-13T00:33:51.950Z,6.60
2023-03-13T00:36:20.531Z,6.70
2023-03-13T00:38:48.405Z,6.80
2023-03-13T00:41:18.379Z,6.90
2023-03-13T00:43:46.412Z,6.90
2023-03-13T00:46:15.137Z,6.90
2023-03-13T00:48:44.497Z,7.00
2023-03-13T00:51:12.716Z,7.10
2023-03-13T00:53:40.578Z,7.20
2023-03-13T00:56:09.362Z,7.20
2023-03-13T00:58:37.942Z,7.20
2023-03-13T01:01:09.792Z,7.20
2023-03-13T01:03:38.349Z,7.20
2023-03-13T01:06:09.156Z,7.20
2023-03-13T01:08:37.430Z,7.20
2023-03-13T01:11:06.593Z,7.20
2023-03-13T01:13:35.548Z,7.30
2023-03-13T01:16:03.903Z,7.30
2023-03-13T01:18:32.036Z,7.30
2023-03-13T01:20:59.937Z,7.20
2023-03-13T01:23:29.222Z,7.10
2023-03-13T01:25:57.518Z,7.10
2023-03-13T01:28:26.614Z,7.00
2023-03-13T01:30:54.582Z,6.80
2023-03-13T01:33:22.646Z,6.80
2023-03-13T01:35:50.605Z,6.60
2023-03-13T01:38:18.758Z,6.50
2023-03-13T01:40:49.620Z,6.50
2023-03-13T01:43:26.454Z,6.40
2023-03-13T01:46:02.287Z,6.40
2023-03-13T01:48:33.134Z,6.50
2023-03-13T01:51:01.828Z,6.60
2023-03-13T01:53:30.501Z,6.60
2023-03-13T01:56:00.988Z,6.80
2023-03-13T01:58:30.254Z,6.90
2023-03-13T02:00:58.806Z,6.90
2023-03-13T02:03:27.712Z,6.80
2023-03-13T02:05:56.460Z,6.80
2023-03-13T02:08:25.667Z,6.70
2023-03-13T02:10:55.320Z,6.60
2023-03-13T02:13:24.922Z,6.60
2023-03-13T02:15:53.544Z,6.50
2023-03-13T02:18:21.993Z,6.50
2023-03-13T02:20:52.815Z,6.50
2023-03-13T02:23:23.464Z,6.50
2023-03-13T02:25:53.632Z,6.70
2023-03-13T02:28:22.484Z,6.70
2023-03-13T02:30:51.452Z,6.80
2023-03-13T02:33:20.787Z,6.90
2023-03-13T02:35:49.578Z,6.80
2023-03-13T02:38:21.251Z,6.90
2023-03-13T02:40:50.119Z,6.80
2023-03-13T02:43:21.641Z,6.80
2023-03-13T02:46:05.768Z,6.80
2023-03-13T02:48:34.689Z,6.80
2023-03-13T02:51:04.467Z,6.90
2023-03-13T02:53:32.990Z,6.80
2023-03-13T02:56:01.020Z,6.80
2023-03-13T02:58:44.123Z,6.80
2023-03-13T03:01:17.126Z,6.60
2023-03-13T03:03:45.173Z,6.60
2023-03-13T03:06:13.116Z,6.50
2023-03-13T03:08:43.780Z,6.50
2023-03-13T03:11:11.739Z,6.50
2023-03-13T03:13:40.968Z,6.50
2023-03-13T03:16:09.414Z,6.50
2023-03-13T03:18:37.629Z,6.60
2023-03-13T03:21:06.452Z,6.60
2023-03-13T03:23:34.759Z,6.70
2023-03-13T03:26:02.750Z,6.70
2023-03-13T03:28:30.794Z,6.80
2023-03-13T03:31:04.504Z,6.80
2023-03-13T03:33:32.567Z,6.80
2023-03-13T03:36:00.831Z,6.60
2023-03-13T03:38:28.720Z,6.50
2023-03-13T03:40:56.602Z,6.40
2023-03-13T03:43:24.491Z,6.30
2023-03-13T03:45:52.556Z,6.20
2023-03-13T03:48:21.807Z,6.10
2023-03-13T03:50:49.686Z,6.10
2023-03-13T03:53:17.600Z,6.00
2023-03-13T03:55:45.575Z,6.00
2023-03-13T03:58:13.431Z,5.90
2023-03-13T04:00:44.036Z,5.80
2023-03-13T04:03:11.983Z,5.80
2023-03-13T04:05:41.745Z,5.70
2023-03-13T04:08:09.642Z,5.70
2023-03-13T04:10:37.587Z,5.80
2023-03-13T04:13:05.448Z,5.80
2023-03-13T04:15:33.308Z,5.90
2023-03-13T04:18:01.208Z,5.90
2023-03-13T04:20:29.375Z,6.00
2023-03-13T04:22:58.567Z,5.90
2023-03-13T04:25:26.454Z,5.80
2023-03-13T04:27:54.411Z,5.80
2023-03-13T04:30:22.673Z,5.70
2023-03-13T04:32:51.379Z,5.70
2023-03-13T04:35:19.328Z,5.60
2023-03-13T04:37:47.212Z,5.60
2023-03-13T04:40:16.531Z,5.50
2023-03-13T04:42:44.383Z,5.40
2023-03-13T04:45:12.994Z,5.40
2023-03-13T04:47:41.104Z,5.30
2023-03-13T04:50:09.081Z,5.30
2023-03-13T04:52:36.918Z,5.20
2023-03-13T04:55:04.992Z,5.20
2023-03-13T04:57:34.229Z,5.10
2023-03-13T05:00:02.076Z,5.10
2023-03-13T05:02:29.940Z,5.00
2023-03-13T05:04:57.877Z,5.00
2023-03-13T05:07:25.785Z,4.90
2023-03-13T05:09:53.685Z,4.90
2023-03-13T05:12:21.523Z,4.90
2023-03-13T05:14:50.760Z,4.80
2023-03-13T05:17:18.673Z,4.90
2023-03-13T05:19:46.520Z,4.90
2023-03-13T05:22:14.430Z,4.90
2023-03-13T05:24:42.413Z,4.90
2023-03-13T05:27:10.329Z,4.90
2023-03-13T05:29:38.212Z,5.00
2023-03-13T05:32:07.842Z,5.00
2023-03-13T05:34:35.749Z,5.00
2023-03-13T05:37:03.647Z,5.10
2023-03-13T05:39:31.479Z,5.20
2023-03-13T05:41:59.325Z,5.20
2023-03-13T05:44:27.176Z,5.30
2023-03-13T05:46:55.008Z,5.40
2023-03-13T05:49:24.256Z,5.50
2023-03-13T05:51:52.129Z,5.50
2023-03-13T05:54:20.004Z,5.60
2023-03-13T05:56:48.814Z,5.70
2023-03-13T05:59:16.945Z,5.70
2023-03-13T06:01:44.814Z,5.80
2023-03-13T06:04:12.963Z,5.90
2023-03-13T06:06:42.245Z,6.00
2023-03-13T06:09:11.668Z,6.00
2023-03-13T06:11:39.552Z,6.10
2023-03-13T06:14:07.413Z,6.10
2023-03-13T06:16:35.543Z,6.20
2023-03-13T06:19:03.456Z,6.20
2023-03-13T06:21:31.312Z,6.30
2023-03-13T06:24:00.526Z,6.30
2023-03-13T06:26:28.372Z,6.40
2023-03-13T06:28:56.388Z,6.50
2023-03-13T06:31:24.293Z,6.60
2023-03-13T06:33:53.910Z,6.60
2023-03-13T06:36:21.965Z,6.70
2023-03-13T06:38:49.876Z,6.70
2023-03-13T06:41:19.122Z,6.80
2023-03-13T06:43:46.982Z,6.80
2023-03-13T06:46:17.615Z,6.80
2023-03-13T06:48:46.378Z,6.80
2023-03-13T06:51:14.770Z,6.90
2023-03-13T06:53:42.788Z,6.90
2023-03-13T06:56:10.946Z,6.90
2023-03-13T06:58:40.129Z,6.90
2023-03-13T07:01:08.908Z,6.90
2023-03-13T07:03:37.260Z,7.00
2023-03-13T07:06:06.545Z,7.00
2023-03-13T07:08:34.471Z,7.10
2023-03-13T07:11:03.556Z,7.20
2023-03-13T07:13:31.437Z,7.30
2023-03-13T07:16:04.348Z,7.30
2023-03-13T07:18:32.354Z,7.40
2023-03-13T07:21:01.333Z,7.50
2023-03-13T07:23:30.631Z,7.60
2023-03-13T07:25:59.310Z,7.60
2023-03-13T07:28:27.837Z,7.70
2023-03-13T07:30:55.708Z,7.80
2023-03-13T07:33:24.920Z,7.90
2023-03-13T07:35:53.235Z,8.00
2023-03-13T07:38:21.181Z,8.20
2023-03-13T07:40:50.283Z,8.40
2023-03-13T07:43:18.567Z,8.60
2023-03-13T07:45:56.081Z,8.80
2023-03-13T07:48:26.005Z,9.00
2023-03-13T07:50:55.119Z,9.20
2023-03-13T07:53:23.310Z,9.30
2023-03-13T07:55:55.252Z,9.40
2023-03-13T07:58:23.544Z,9.50
2023-03-13T08:00:51.556Z,9.60
2023-03-13T08:03:19.735Z,9.70
2023-03-13T08:05:48.991Z,9.70
2023-03-13T08:08:16.840Z,9.70
2023-03-13T08:10:45.129Z,9.80
2023-03-13T08:13:12.961Z,9.80
2023-03-13T08:15:40.817Z,9.90
2023-03-13T08:18:08.715Z,9.90
2023-03-13T08:20:36.577Z,9.90
2023-03-13T08:23:05.780Z,9.80
2023-03-13T08:25:33.933Z,9.90
2023-03-13T08:28:02.601Z,9.80
2023-03-13T08:30:30.533Z,9.80
2023-03-13T08:32:58.473Z,9.80
2023-03-13T08:35:26.397Z,9.90
2023-03-13T08:37:54.245Z,9.90
2023-03-13T08:40:23.481Z,10.00
2023-03-13T08:42:51.325Z,10.10
2023-03-13T08:45:19.202Z,10.20
2023-03-13T08:47:47.036Z,10.30
2023-03-13T08:50:14.891Z,10.50
2023-03-13T08:52:45.004Z,10.70
2023-03-13T08:55:13.104Z,10.70
2023-03-13T08:57:42.368Z,10.80
2023-03-13T09:00:11.146Z,10.80
2023-03-13T09:02:39.060Z,10.90
2023-03-13T09:05:07.496Z,11.00
2023-03-13T09:07:35.372Z,11.10
2023-03-13T09:10:03.208Z,11.20
2023-03-13T09:12:31.739Z,11.40
2023-03-13T09:15:01.033Z,11.50
2023-03-13T09:17:28.870Z,11.70
2023-03-13T09:20:00.626Z,11.80
2023-03-13T09:22:28.969Z,11.80
2023-03-13T09:24:56.834Z,11.90
2023-03-13T09:27:24.671Z,11.90
2023-03-13T09:29:52.567Z,12.00
2023-03-13T09:32:21.805Z,12.00
2023-03-13T09:34:49.856Z,12.10
2023-03-13T09:37:17.750Z,12.10
2023-03-13T09:39:45.602Z,12.20
2023-03-13T09:42:15.832Z,12.30
2023-03-13T09:44:45.873Z,12.40
2023-03-13T09:47:17.098Z,12.40
2023-03-13T09:49:51.277Z,12.60
2023-03-13T09:52:20.561Z,12.60
2023-03-13T09:54:51.701Z,12.60
2023-03-13T09:57:23.664Z,12.60
2023-03-13T09:59:54.080Z,12.50
2023-03-13T10:02:26.292Z,12.70
2023-03-13T10:04:58.885Z,12.80
2023-03-13T10:07:26.741Z,12.90
2023-03-13T10:09:54.621Z,12.90
2023-03-13T10:12:24.712Z,13.00
2023-03-13T10:14:59.149Z,13.00
2023-03-13T10:17:32.078Z,13.10
2023-03-13T10:20:08.442Z,13.00
2023-03-13T10:22:37.512Z,13.10
2023-03-13T10:25:08.336Z,13.10
2023-03-13T10:27:44.087Z,13.10
2023-03-13T10:30:20.467Z,13.20
2023-03-13T10:32:48.416Z,13.20
2023-03-13T10:35:23.157Z,13.00
2023-03-13T10:37:51.110Z,12.90
2023-03-13T10:40:23.872Z,12.90
2023-03-13T10:42:52.517Z,12.80
2023-03-13T10:45:25.004Z,12.70
2023-03-13T10:47:55.561Z,12.70
2023-03-13T10:50:26.295Z,12.50
2023-03-13T10:52:55.028Z,12.50
2023-03-13T10:55:23.861Z,12.40
2023-03-13T10:57:57.454Z,12.40
2023-03-13T11:00:30.362Z,12.40
2023-03-13T11:02:58.410Z,12.50
2023-03-13T11:05:37.821Z,12.60
2023-03-13T11:08:12.763Z,12.70
2023-03-13T11:10:51.741Z,12.80
2023-03-13T11:13:36.602Z,13.00
2023-03-13T11:16:13.480Z,13.10
2023-03-13T11:18:44.697Z,13.40
2023-03-13T11:21:18.755Z,13.60
2023-03-13T11:23:48.589Z,13.90
2023-03-13T11:26:20.641Z,14.00
2023-03-13T11:28:51.746Z,14.10
2023-03-13T11:31:22.022Z,14.20
2023-03-13T11:33:57.511Z,14.30
2023-03-13T11:36:31.256Z,14.40
2023-03-13T11:39:03.736Z,14.60
2023-03-13T11:41:38.492Z,14.70
2023-03-13T11:44:13.859Z,14.80
2023-03-13T11:46:46.897Z,14.80
2023-03-13T11:49:22.576Z,14.90
2023-03-13T11:51:59.207Z,15.20
2023-03-13T11:54:33.261Z,15.80
2023-03-13T11:57:04.143Z,16.20
2023-03-13T11:59:37.547Z,16.40
2023-03-13T12:02:07.906Z,16.20
2023-03-13T12:04:38.021Z,16.20
2023-03-13T12:07:11.479Z,16.00
2023-03-13T12:09:43.300Z,16.10
2023-03-13T12:12:16.609Z,16.20
2023-03-13T12:14:45.554Z,16.40
2023-03-13T12:17:15.739Z,16.70
2023-03-13T12:19:48.046Z,16.80
2023-03-13T12:22:20.203Z,16.70
2023-03-13T12:24:51.261Z,16.60
2023-03-13T12:27:21.025Z,16.60
2023-03-13T12:29:52.476Z,16.60
2023-03-13T12:32:24.458Z,16.90
2023-03-13T12:34:55.378Z,17.00
2023-03-13T12:37:31.877Z,17.20
2023-03-13T12:40:02.036Z,17.30
2023-03-13T12:42:38.708Z,17.60
2023-03-13T12:45:08.070Z,17.90
2023-03-13T12:47:38.850Z,17.70
2023-03-13T12:50:16.618Z,17.80
2023-03-13T12:52:52.053Z,17.60
2023-03-13T12:55:35.510Z,17.60
2023-03-13T12:58:21.281Z,17.30
2023-03-13T13:00:50.002Z,17.10
2023-03-13T13:03:27.685Z,17.10
2023-03-13T13:06:06.865Z,17.10
2023-03-13T13:08:37.852Z,16.80
2023-03-13T13:11:29.768Z,16.80
2023-03-13T13:13:57.679Z,16.80
2023-03-13T13:16:26.715Z,16.70
2023-03-13T13:18:54.738Z,16.70
2023-03-13T13:21:26.413Z,16.80
2023-03-13T13:23:56.577Z,16.80
2023-03-13T13:26:48.686Z,16.80
2023-03-13T13:29:35.146Z,16.90
2023-03-13T13:32:04.119Z,16.80
2023-03-13T13:34:50.732Z,16.80
2023-03-13T13:37:27.374Z,16.80
2023-03-13T13:40:10.559Z,16.60
2023-03-13T13:42:43.589Z,16.50
2023-03-13T13:45:22.654Z,16.50
2023-03-13T13:47:51.614Z,16.40
2023-03-13T13:50:20.822Z,16.30
2023-03-13T13:52:49.481Z,16.30
2023-03-13T13:55:32.197Z,16.10
2023-03-13T13:58:04.257Z,16.00
2023-03-13T14:00:38.318Z,16.00
2023-03-13T14:03:17.461Z,16.00
2023-03-13T14:05:47.679Z,15.80
2023-03-13T14:08:17.891Z,15.80
2023-03-13T14:10:47.771Z,15.60
2023-03-13T14:13:17.892Z,15.60
2023-03-13T14:15:46.954Z,15.60
2023-03-13T14:18:19.824Z,15.60
2023-03-13T14:20:58.239Z,15.70
2023-03-13T14:23:42.541Z,15.80
2023-03-13T14:26:11.958Z,15.90
2023-03-13T14:28:42.380Z,16.00
2023-03-13T14:31:12.211Z,16.10
2023-03-13T14:33:40.202Z,16.10
2023-03-13T14:36:08.357Z,16.10
2023-03-13T14:38:36.302Z,16.10
2023-03-13T14:41:04.257Z,16.00
2023-03-13T14:43:34.404Z,15.90
2023-03-13T14:46:13.804Z,15.90
2023-03-13T14:48:41.910Z,16.00
2023-03-13T14:51:15.600Z,16.00
2023-03-13T14:53:54.392Z,16.10
2023-03-13T14:56:22.382Z,16.00
2023-03-13T14:58:50.231Z,16.00
2023-03-13T15:01:25.064Z,16.00
2023-03-13T15:03:53.512Z,15.90
2023-03-13T15:06:22.377Z,15.80
2023-03-13T15:08:51.615Z,15.70
2023-03-13T15:11:26.304Z,15.70
2023-03-13T15:13:54.682Z,15.50
2023-03-13T15:16:24.636Z,15.50
2023-03-13T15:18:53.184Z,15.50
2023-03-13T15:21:22.602Z,15.40
2023-03-13T15:23:52.079Z,15.50
2023-03-13T15:26:19.961Z,15.50
2023-03-13T15:28:47.852Z,15.50
2023-03-13T15:31:16.188Z,15.50
2023-03-13T15:33:45.511Z,15.60
2023-03-13T15:36:13.382Z,15.70
2023-03-13T15:38:41.332Z,15.70
2023-03-13T15:41:09.825Z,15.80
2023-03-13T15:43:38.062Z,15.80
2023-03-13T15:46:08.177Z,15.80
2023-03-13T15:48:38.092Z,15.70
2023-03-13T15:51:07.666Z,15.70
2023-03-13T15:53:36.223Z,15.60
2023-03-13T15:56:05.101Z,15.50
2023-03-13T15:58:32.975Z,15.40
2023-03-13T16:01:00.894Z,15.30
2023-03-13T16:03:29.875Z,15.20
2023-03-13T16:05:57.977Z,15.10
2023-03-13T16:08:36.434Z,15.00
2023-03-13T16:11:06.416Z,15.00
2023-03-13T16:13:34.316Z,15.00
2023-03-13T16:16:02.205Z,14.90
2023-03-13T16:18:30.176Z,14.70
2023-03-13T16:20:58.222Z,14.60
2023-03-13T16:23:27.666Z,14.50
2023-03-13T16:25:55.526Z,14.30
2023-03-13T16:28:23.401Z,14.30
2023-03-13T16:30:51.385Z,14.10
2023-03-13T16:33:19.273Z,14.00
2023-03-13T16:35:47.250Z,13.90
2023-03-13T16:38:15.132Z,13.80
2023-03-13T16:40:44.355Z,13.70
2023-03-13T16:43:12.791Z,13.60
2023-03-13T16:45:40.640Z,13.50
2023-03-13T16:48:11.606Z,13.40
2023-03-13T16:50:39.671Z,13.20
2023-03-13T16:53:07.541Z,13.20
2023-03-13T16:55:36.990Z,13.00
2023-03-13T16:58:06.326Z,12.90
2023-03-13T17:00:34.268Z,12.70
2023-03-13T17:03:02.208Z,12.60
2023-03-13T17:05:30.119Z,12.50
2023-03-13T17:07:57.976Z,12.40
2023-03-13T17:10:26.668Z,12.30
2023-03-13T17:12:54.578Z,12.10
2023-03-13T17:15:24.689Z,12.00
2023-03-13T17:17:53.066Z,12.00
2023-03-13T17:20:22.084Z,11.90
2023-03-13T17:22:49.966Z,11.80
2023-03-13T17:25:18.020Z,11.70
2023-03-13T17:27:47.445Z,11.60
2023-03-13T17:30:19.888Z,11.50
2023-03-13T17:32:50.151Z,11.50
2023-03-13T17:35:18.758Z,11.30
2023-03-13T17:37:46.848Z,11.20
2023-03-13T17:40:16.656Z,11.10
2023-03-13T17:42:44.640Z,11.00
2023-03-13T17:45:13.134Z,10.90
2023-03-13T17:47:41.387Z,10.80
2023-03-13T17:50:18.606Z,10.70
2023-03-13T17:52:46.542Z,10.70
2023-03-13T17:55:14.636Z,10.60
2023-03-13T17:57:43.736Z,10.50
2023-03-13T18:00:22.021Z,10.50
2023-03-13T18:02:50.201Z,10.40
2023-03-13T18:05:19.584Z,10.40
2023-03-13T18:07:47.605Z,10.30
2023-03-13T18:10:17.092Z,10.20
2023-03-13T18:12:45.029Z,10.10
2023-03-13T18:15:13.022Z,10.00
2023-03-13T18:17:41.277Z,9.90
2023-03-13T18:20:14.412Z,9.80
2023-03-13T18:22:44.081Z,9.80
2023-03-13T18:25:12.015Z,9.70
2023-03-13T18:27:40.203Z,9.70
2023-03-13T18:30:14.525Z,9.70
2023-03-13T18:32:42.465Z,9.60
2023-03-13T18:35:18.706Z,9.50
2023-03-13T18:37:48.564Z,9.50
2023-03-13T18:40:18.258Z,9.50
2023-03-13T18:42:46.152Z,9.40
2023-03-13T18:45:17.357Z,9.40
2023-03-13T18:47:45.613Z,9.30
2023-03-13T18:50:19.221Z,9.20
2023-03-13T18:52:48.437Z,9.20
2023-03-13T18:55:16.472Z,9.10
2023-03-13T18:57:44.411Z,9.10
2023-03-13T19:00:23.128Z,9.00
2023-03-13T19:02:51.152Z,8.90
2023-03-13T19:05:19.482Z,8.70
2023-03-13T19:07:48.707Z,8.70
2023-03-13T19:10:18.912Z,8.60
2023-03-13T19:12:46.885Z,8.60
2023-03-13T19:15:15.663Z,8.60
2023-03-13T19:17:43.906Z,8.60
2023-03-13T19:20:15.669Z,8.60
2023-03-13T19:22:43.533Z,8.60
2023-03-13T19:25:14.038Z,8.50
2023-03-13T19:27:42.304Z,8.40
2023-03-13T19:30:17.794Z,8.30
2023-03-13T19:32:45.715Z,8.30
2023-03-13T19:35:13.780Z,8.20
2023-03-13T19:37:41.642Z,8.20
2023-03-13T19:40:15.170Z,8.20
2023-03-13T19:42:43.021Z,8.20
2023-03-13T19:45:11.542Z,8.30
2023-03-13T19:47:39.457Z,8.30
2023-03-13T19:50:07.888Z,8.20
2023-03-13T19:52:35.704Z,8.10
2023-03-13T19:55:05.126Z,8.00
2023-03-13T19:57:34.567Z,7.90
2023-03-13T20:00:03.400Z,7.80
2023-03-13T20:02:31.337Z,7.70
2023-03-13T20:04:59.212Z,7.60
2023-03-13T20:07:27.094Z,7.60
2023-03-13T20:09:55.006Z,7.60
2023-03-13T20:12:22.886Z,7.60
2023-03-13T20:14:52.107Z,7.60
2023-03-13T20:17:19.978Z,7.60
2023-03-13T20:19:47.840Z,7.60
2023-03-13T20:22:16.040Z,7.60
2023-03-13T20:24:43.931Z,7.60
2023-03-13T20:27:11.782Z,7.60
2023-03-13T20:29:41.301Z,7.60
2023-03-13T20:32:11.391Z,7.60
2023-03-13T20:34:39.261Z,7.50
2023-03-13T20:37:07.139Z,7.50
2023-03-13T20:39:35.883Z,7.50
2023-03-13T20:42:03.901Z,7.40
2023-03-13T20:44:31.784Z,7.40
2023-03-13T20:46:59.663Z,7.40
2023-03-13T20:49:28.907Z,7.40
2023-03-13T20:51:56.821Z,7.50
2023-03-13T20:54:24.670Z,7.50
2023-03-13T20:56:52.508Z,7.40
2023-03-13T20:59:20.570Z,7.30
2023-03-13T21:01:48.465Z,7.20
2023-03-13T21:04:16.450Z,7.00
2023-03-13T21:06:45.658Z,6.90
2023-03-13T21:09:14.048Z,6.90
2023-03-13T21:11:41.908Z,6.80
2023-03-13T21:14:09.752Z,6.80
2023-03-13T21:16:37.682Z,6.80
2023-03-13T21:19:05.579Z,6.80
2023-03-13T21:21:33.435Z,6.80
2023-03-13T21:24:02.748Z,6.90
2023-03-13T21:26:31.284Z,6.90
2023-03-13T21:28:59.196Z,6.90
2023-03-13T21:31:27.349Z,6.80
2023-03-13T21:33:55.295Z,6.80
2023-03-13T21:36:23.409Z,6.70
2023-03-13T21:38:51.434Z,6.70
2023-03-13T21:41:22.139Z,6.70
2023-03-13T21:43:49.996Z,6.70
2023-03-13T21:46:19.858Z,6.60
2023-03-13T21:48:47.770Z,6.60
2023-03-13T21:51:15.688Z,6.60
2023-03-13T21:53:44.476Z,6.50
2023-03-13T21:56:15.415Z,6.50
2023-03-13T21:58:45.275Z,6.50
2023-03-13T22:01:13.489Z,6.50
2023-03-13T22:03:41.463Z,6.40
2023-03-13T22:06:12.586Z,6.50
2023-03-13T22:08:41.279Z,6.50
2023-03-13T22:11:09.467Z,6.40
2023-03-13T22:13:37.436Z,6.30
2023-03-13T22:16:07.468Z,6.30
2023-03-13T22:18:35.362Z,6.30
2023-03-13T22:21:03.199Z,6.20
2023-03-13T22:23:31.021Z,6.10
2023-03-13T22:25:59.521Z,6.10
2023-03-13T22:28:27.499Z,6.20
2023-03-13T22:30:55.394Z,6.20
2023-03-13T22:33:24.647Z,6.20
2023-03-13T22:35:53.140Z,6.20
2023-03-13T22:38:21.288Z,6.20
2023-03-13T22:40:49.520Z,6.20
2023-03-13T22:43:17.383Z,6.30
2023-03-13T22:45:48.160Z,6.30
2023-03-13T22:48:15.996Z,6.20
2023-03-13T22:50:45.206Z,6.20
2023-03-13T22:53:13.180Z,6.30
2023-03-13T22:55:41.021Z,6.20
2023-03-13T22:58:08.946Z,6.20
2023-03-13T23:00:36.895Z,6.20
2023-03-13T23:03:04.778Z,6.20
2023-03-13T23:05:32.636Z,6.20
2023-03-13T23:08:01.914Z,6.10
2023-03-13T23:10:29.770Z,6.10
2023-03-13T23:12:57.647Z,6.10
2023-03-13T23:15:26.547Z,6.10
2023-03-13T23:17:57.496Z,6.20
2023-03-13T23:20:25.337Z,6.20
2023-03-13T23:22:53.370Z,6.20
2023-03-13T23:25:23.072Z,6.20
2023-03-13T23:27:51.293Z,6.20
2023-03-13T23:30:19.892Z,6.20
2023-03-13T23:32:48.329Z,6.20
2023-03-13T23:35:16.880Z,6.20
2023-03-13T23:37:47.687Z,6.20
2023-03-13T23:40:16.176Z,6.20
2023-03-13T23:42:46.638Z,6.10
2023-03-13T23:45:14.696Z,6.00
2023-03-13T23:47:44.008Z,6.10
2023-03-13T23:50:12.404Z,6.10
2023-03-13T23:52:40.551Z,6.00
2023-03-13T23:55:08.855Z,6.00
2023-03-13T23:57:38.371Z,6.10
